Ana Sayfa
METAR-TAF:

METAR-TAF

Havaalanları :

Hemphill County Airport

Canadian, Teksas, Amerika Birleşik Devletleri

Enlem: 35-54N, Boylam: 100-24W, yükseklik: 730 m

Güncel hava durumu gözlemi

Rapor saat 09:55 UTC de 19 dakika önce yapıldı.
Rüzgar kuzeydoğudan 8 kt
Sıcaklık 21°C
Nem 88%
Basınç 1021 hPa
Görüş mesafesi: 16.1 km
1800 ft yükseklikte parçalı bulutlu

METAR: KHHF 220955Z AUTO 04008KT 10SM SCT018 21/19 A3016 RMK AO2 LTG DSNT W T02120187

Saat: 05:14 (10:14 UTC)


TAF: eksik

4.000'den fazla havaalanı için hava durumu gözlemleri ve tahminleri (METAR ve TAF raporları).

Kullanılabilir istasyonlar harita üzerinde sarı ve kırmızı noktalarla gösterilir.

İstasyonun adını görmek için fareyi noktanın üzerinde gezdirin.

Sonrasında hava gözlem ve tahminlerini görmek için tıklayın.

Haritayı değiştirmek için: yaklaştırmak için siyah artı işaretli yeşil düğmeye ve uzaklaştırmak için de eksi işaretli düğmeye hızla tıklayın; bitişik haritalar için yeşil okları kullanın.


METAR-TAF: